Time;durP1;ratioP1;P1;durP2;ratioP2;P2;SDS_P1;SDS_P2;PMS_P1;PMS_P2;Temp;Humidity;BMP_temperature;BMP_pressure;BME280_temperature;BME280_humidity;BME280_pressure;Samples;Min_cycle;Max_cycle;Signal;HPM_P1;HPM_P2
2023/04/19 00:00:13;;;;;;;5.00;3.70;;;;;;;13.09;88.09;100548.38;4957844;28;20126;-87
2023/04/19 00:02:40;;;;;;;5.10;3.75;;;;;;;12.93;89.27;100547.44;4958274;28;20035;-90
2023/04/19 00:05:06;;;;;;;6.43;3.65;;;;;;;12.93;88.94;100544.78;4964182;29;20044;-87
2023/04/19 00:07:32;;;;;;;7.40;3.85;;;;;;;13.03;88.58;100544.56;4960828;28;20050;-87
2023/04/19 00:09:58;;;;;;;5.47;3.50;;;;;;;12.80;90.62;100536.56;4957665;29;20039;-86
2023/04/19 00:12:23;;;;;;;5.75;3.65;;;;;;;12.86;89.94;100543.84;4957987;28;20542;-88
2023/04/19 00:14:49;;;;;;;5.43;3.60;;;;;;;12.89;89.74;100543.47;4964976;28;20046;-89
2023/04/19 00:17:15;;;;;;;8.00;3.92;;;;;;;12.77;90.88;100534.25;4957367;29;20505;-90
2023/04/19 00:19:40;;;;;;;5.32;3.53;;;;;;;12.84;89.98;100529.91;4940512;29;20050;-89
2023/04/19 00:22:06;;;;;;;5.40;3.70;;;;;;;12.83;90.42;100530.06;4956239;29;20489;-90
2023/04/19 00:24:31;;;;;;;6.05;3.20;;;;;;;12.86;89.88;100530.53;4957685;29;20035;-88
2023/04/19 00:26:58;;;;;;;7.63;3.40;;;;;;;12.60;92.46;100532.69;4957450;28;20121;-88
2023/04/19 00:29:23;;;;;;;5.40;3.70;;;;;;;12.53;93.12;100534.38;4957327;29;20054;-88
2023/04/19 00:31:49;;;;;;;6.15;3.58;;;;;;;12.50;93.12;100541.88;4955836;29;20107;-88
2023/04/19 00:34:17;;;;;;;5.60;3.75;;;;;;;12.24;94.92;100536.84;4940060;29;20036;-88
2023/04/19 00:36:43;;;;;;;5.53;3.47;;;;;;;12.14;96.30;100534.41;4956269;29;20043;-89
2023/04/19 00:39:08;;;;;;;4.18;3.38;;;;;;;12.05;97.63;100539.94;4956914;28;20039;-88
2023/04/19 00:41:36;;;;;;;6.00;3.53;;;;;;;12.01;97.26;100536.78;4956538;29;20032;-88
2023/04/19 00:44:03;;;;;;;5.40;3.33;;;;;;;12.20;95.89;100536.38;4955656;29;20043;-88
2023/04/19 00:46:28;;;;;;;4.75;3.30;;;;;;;12.14;96.65;100538.88;4957426;29;20023;-90
2023/04/19 00:48:54;;;;;;;4.75;3.28;;;;;;;12.39;94.37;100535.16;4956082;29;20407;-89
2023/04/19 00:51:20;;;;;;;6.53;3.75;;;;;;;12.43;93.93;100525.81;4957542;28;20102;-87
2023/04/19 00:53:45;;;;;;;5.03;3.83;;;;;;;12.51;93.34;100527.59;4959226;28;20043;-88
2023/04/19 00:56:13;;;;;;;6.22;4.00;;;;;;;12.45;94.15;100523.81;4963415;28;20074;-88
2023/04/19 00:58:39;;;;;;;4.57;3.47;;;;;;;12.33;95.20;100531.34;4962182;28;20042;-89
2023/04/19 01:01:05;;;;;;;5.50;4.03;;;;;;;12.57;92.83;100527.72;4969468;28;20031;-87
2023/04/19 01:03:31;;;;;;;10.23;3.42;;;;;;;12.55;93.51;100524.44;4968509;28;20047;-87
2023/04/19 01:05:56;;;;;;;4.97;3.20;;;;;;;12.52;93.17;100532.75;4970381;28;20038;-88
2023/04/19 01:08:23;;;;;;;4.68;3.13;;;;;;;12.32;95.55;100531.53;4957284;28;20035;-89
2023/04/19 01:10:52;;;;;;;5.88;3.78;;;;;;;12.24;97.33;100534.19;4955093;29;20094;-89
2023/04/19 01:13:18;;;;;;;5.63;3.55;;;;;;;12.06;97.55;100538.94;4956915;28;20035;-91
2023/04/19 01:15:43;;;;;;;5.32;3.95;;;;;;;12.05;97.49;100531.94;4954850;29;20043;-88
2023/04/19 01:18:09;;;;;;;4.70;3.65;;;;;;;12.22;95.37;100538.88;4956595;28;20090;-91
2023/04/19 01:20:34;;;;;;;4.97;3.50;;;;;;;12.28;94.89;100527.53;4955599;29;20403;-90
2023/04/19 01:23:00;;;;;;;5.93;3.63;;;;;;;12.40;93.95;100531.47;4954954;29;20122;-88
2023/04/19 01:25:26;;;;;;;5.90;3.85;;;;;;;12.22;94.97;100536.22;4954106;29;20126;-89
2023/04/19 01:27:51;;;;;;;5.97;3.80;;;;;;;12.16;95.01;100534.25;4955936;29;20402;-89
2023/04/19 01:30:17;;;;;;;5.68;4.03;;;;;;;12.07;95.19;100540.56;4954842;29;20102;-87
2023/04/19 01:32:42;;;;;;;9.30;3.60;;;;;;;12.17;95.00;100531.41;4955999;29;20082;-89
2023/04/19 01:35:10;;;;;;;5.18;3.97;;;;;;;11.93;96.55;100527.00;4955004;29;20035;-87
2023/04/19 01:37:36;;;;;;;6.13;3.83;;;;;;;12.03;95.82;100528.66;4955690;29;20506;-86
2023/04/19 01:40:05;;;;;;;5.75;4.18;;;;;;;12.06;95.91;100530.97;4954734;29;20174;-86
2023/04/19 01:42:34;;;;;;;7.43;4.43;;;;;;;11.75;98.57;100521.09;4954732;29;20050;-89
2023/04/19 01:44:59;;;;;;;5.65;4.60;;;;;;;11.46;100.00;100523.44;4954857;29;20031;-87
2023/04/19 01:47:26;;;;;;;6.93;4.57;;;;;;;11.65;100.00;100525.72;4954457;29;20080;-87
2023/04/19 01:49:51;;;;;;;8.75;4.90;;;;;;;11.85;98.50;100515.59;4954542;29;20050;-89
2023/04/19 01:52:17;;;;;;;10.32;5.38;;;;;;;11.79;98.82;100527.72;4955077;29;20043;-88
2023/04/19 01:54:42;;;;;;;8.77;4.95;;;;;;;11.91;97.00;100518.38;4956427;29;20079;-90
2023/04/19 01:57:08;;;;;;;10.98;5.10;;;;;;;11.78;98.65;100520.75;4956117;29;20054;-89
2023/04/19 01:59:33;;;;;;;9.82;5.43;;;;;;;11.60;100.00;100516.63;4954450;29;20056;-89
2023/04/19 02:01:59;;;;;;;9.20;5.22;;;;;;;11.35;100.00;100513.16;4955031;29;20028;-88
2023/04/19 02:04:24;;;;;;;8.82;4.90;;;;;;;11.38;100.00;100516.31;4956273;28;20457;-87
2023/04/19 02:06:50;;;;;;;6.28;4.43;;;;;;;11.32;100.00;100508.19;4956134;29;20031;-87
2023/04/19 02:09:15;;;;;;;7.05;4.25;;;;;;;11.12;100.00;100502.38;4954666;28;20122;-89
2023/04/19 02:11:41;;;;;;;7.03;4.45;;;;;;;11.07;100.00;100499.38;4956312;29;20035;-87
2023/04/19 02:14:06;;;;;;;7.95;4.30;;;;;;;11.43;100.00;100499.88;4955157;28;20090;-88
2023/04/19 02:16:32;;;;;;;6.50;4.15;;;;;;;11.62;100.00;100515.44;4942513;29;20031;-88
2023/04/19 02:18:57;;;;;;;8.50;4.50;;;;;;;11.80;100.00;100502.81;4958084;29;20062;-87
2023/04/19 02:21:23;;;;;;;5.75;4.07;;;;;;;11.93;98.78;100503.09;4958502;29;20054;-88
2023/04/19 02:23:48;;;;;;;8.18;4.13;;;;;;;11.71;100.00;100503.84;4958072;29;20035;-90
2023/04/19 02:26:14;;;;;;;7.47;4.03;;;;;;;11.46;100.00;100504.84;4958282;29;20043;-88
2023/04/19 02:28:42;;;;;;;12.55;4.10;;;;;;;11.37;100.00;100505.84;4959506;28;20571;-88
2023/04/19 02:31:07;;;;;;;6.15;3.92;;;;;;;11.52;100.00;100506.84;4959519;28;20119;-89
2023/04/19 02:33:34;;;;;;;6.97;3.85;;;;;;;11.25;100.00;100500.06;4959117;28;20406;-91
2023/04/19 02:35:59;;;;;;;7.30;3.88;;;;;;;11.30;100.00;100499.56;4957956;29;20036;-89
2023/04/19 02:38:25;;;;;;;6.38;4.13;;;;;;;11.22;100.00;100503.06;4957845;29;20043;-89
2023/04/19 02:40:52;;;;;;;5.97;3.60;;;;;;;11.04;100.00;100496.25;4959128;29;20046;-90
2023/04/19 02:43:18;;;;;;;4.85;3.30;;;;;;;11.20;100.00;100493.59;4959242;29;20031;-88
2023/04/19 02:45:43;;;;;;;3.85;3.28;;;;;;;11.20;100.00;100498.91;4958880;28;20059;-89
2023/04/19 02:48:11;;;;;;;8.30;3.60;;;;;;;11.36;100.00;100493.59;4971156;28;20039;-88
2023/04/19 02:50:39;;;;;;;5.00;3.40;;;;;;;11.42;100.00;100495.56;4958113;29;20046;-90
2023/04/19 02:53:05;;;;;;;4.63;3.80;;;;;;;11.50;100.00;100495.53;4946863;29;20042;-86
2023/04/19 02:55:32;;;;;;;6.20;3.70;;;;;;;11.31;100.00;100495.91;4957332;29;20047;-89
2023/04/19 02:58:05;;;;;;;7.25;3.90;;;;;;;11.12;100.00;100485.63;4957726;29;20030;-88
2023/04/19 03:00:35;;;;;;;6.60;3.53;;;;;;;11.01;100.00;100491.25;4958250;29;20035;-89
2023/04/19 03:03:06;;;;;;;4.13;3.08;;;;;;;10.97;100.00;100489.97;4957993;29;20094;-89
2023/04/19 03:05:38;;;;;;;4.85;3.35;;;;;;;10.85;100.00;100484.97;4965594;28;20027;-88
2023/04/19 03:08:03;;;;;;;4.95;3.42;;;;;;;10.93;100.00;100488.63;4957599;29;20043;-92
2023/04/19 03:10:29;;;;;;;4.15;2.90;;;;;;;10.95;100.00;100489.28;4958926;28;20042;-89
2023/04/19 03:12:55;;;;;;;5.22;3.30;;;;;;;11.07;100.00;100487.97;4956853;29;20039;-89
2023/04/19 03:15:21;;;;;;;5.00;3.55;;;;;;;10.95;100.00;100486.63;4941716;29;20071;-89
2023/04/19 03:17:46;;;;;;;6.50;3.17;;;;;;;10.76;100.00;100479.84;4957171;29;20035;-89
2023/04/19 03:20:12;;;;;;;6.75;3.63;;;;;;;10.89;100.00;100486.31;4957327;29;20046;-88
2023/04/19 03:22:39;;;;;;;4.75;3.28;;;;;;;10.91;100.00;100486.13;4957345;29;20031;-91
2023/04/19 03:25:05;;;;;;;3.40;2.80;;;;;;;10.97;100.00;100488.13;4958013;28;20158;-91
2023/04/19 03:27:34;;;;;;;4.35;3.30;;;;;;;10.68;100.00;100487.75;4957415;28;20475;-90
2023/04/19 03:30:03;;;;;;;4.35;3.33;;;;;;;10.67;100.00;100491.44;4956233;29;20046;-89
2023/04/19 03:32:30;;;;;;;4.50;3.10;;;;;;;10.67;100.00;100486.13;4958159;29;20043;-88
2023/04/19 03:34:56;;;;;;;5.05;3.40;;;;;;;10.64;100.00;100476.66;4956532;29;20039;-88
2023/04/19 03:37:21;;;;;;;5.22;3.72;;;;;;;10.66;100.00;100482.63;4961848;29;20035;-90
2023/04/19 03:39:47;;;;;;;5.57;3.50;;;;;;;10.80;100.00;100487.28;4956096;29;20067;-90
2023/04/19 03:42:19;;;;;;;5.93;3.13;;;;;;;10.87;100.00;100482.97;4957045;29;20039;-89
2023/04/19 03:44:58;;;;;;;4.80;3.10;;;;;;;10.90;100.00;100482.66;4956524;29;20348;-89
2023/04/19 03:47:26;;;;;;;4.70;3.15;;;;;;;10.94;100.00;100483.16;4956930;29;20050;-88
2023/04/19 03:49:54;;;;;;;4.07;3.30;;;;;;;10.74;100.00;100477.34;4956409;29;20143;-88
2023/04/19 03:52:20;;;;;;;8.18;3.90;;;;;;;10.68;100.00;100474.50;4956528;28;20068;-90
2023/04/19 03:54:45;;;;;;;6.28;3.72;;;;;;;10.76;100.00;100478.00;4956645;29;20050;-91
2023/04/19 03:57:33;;;;;;;4.22;3.13;;;;;;;10.76;100.00;100469.22;4957875;29;20094;-88
2023/04/19 04:00:05;;;;;;;7.22;2.97;;;;;;;10.89;100.00;100483.66;4957015;29;20563;-88
2023/04/19 04:02:39;;;;;;;3.72;2.83;;;;;;;11.09;100.00;100472.72;4966812;28;20527;-89
2023/04/19 04:05:06;;;;;;;9.52;3.25;;;;;;;11.17;100.00;100478.03;4957123;29;20062;-88
2023/04/19 04:07:32;;;;;;;4.35;2.95;;;;;;;10.87;100.00;100471.56;4972912;28;20039;-86
2023/04/19 04:09:58;;;;;;;7.00;2.80;;;;;;;11.01;100.00;100472.69;4977099;28;20038;-89
2023/04/19 04:12:23;;;;;;;5.03;3.00;;;;;;;10.93;100.00;100480.69;4975991;28;20035;-89
2023/04/19 04:14:51;;;;;;;3.83;2.75;;;;;;;10.99;100.00;100467.59;4976947;28;20437;-86
2023/04/19 04:17:17;;;;;;;10.43;3.35;;;;;;;10.97;100.00;100482.00;4976583;28;20050;-87
2023/04/19 04:19:43;;;;;;;8.23;3.10;;;;;;;10.88;100.00;100478.50;4978344;28;20027;-90
2023/04/19 04:22:08;;;;;;;6.85;3.38;;;;;;;10.69;100.00;100473.53;4977324;28;20502;-85
2023/04/19 04:24:40;;;;;;;6.90;2.88;;;;;;;10.57;100.00;100475.66;4961885;28;20049;-87
2023/04/19 04:27:20;;;;;;;6.15;3.53;;;;;;;10.67;100.00;100481.63;4978223;28;20134;-86
2023/04/19 04:29:49;;;;;;;6.78;3.50;;;;;;;10.82;100.00;100480.00;4978211;28;20034;-86
2023/04/19 04:32:17;;;;;;;9.05;3.30;;;;;;;10.73;100.00;100473.03;4978047;28;20513;-86
2023/04/19 04:34:43;;;;;;;6.45;3.70;;;;;;;10.81;100.00;100473.03;4982562;28;20061;-86
2023/04/19 04:37:19;;;;;;;7.05;3.88;;;;;;;10.64;100.00;100474.00;4962659;28;20573;-87
2023/04/19 04:39:46;;;;;;;7.35;3.60;;;;;;;10.80;100.00;100484.63;4976850;28;20092;-85
2023/04/19 04:42:12;;;;;;;11.02;3.90;;;;;;;10.88;100.00;100474.03;4966313;28;20465;-87
2023/04/19 04:44:37;;;;;;;4.90;3.55;;;;;;;10.99;100.00;100477.34;4978832;28;20035;-86
2023/04/19 04:47:04;;;;;;;8.35;3.70;;;;;;;11.08;100.00;100471.06;4977003;28;20074;-91
2023/04/19 04:49:36;;;;;;;9.43;4.10;;;;;;;11.06;100.00;100471.22;4975873;28;20038;-88
2023/04/19 04:52:02;;;;;;;6.53;3.33;;;;;;;11.19;100.00;100481.34;4977477;28;20039;-88
2023/04/19 04:54:31;;;;;;;9.90;3.67;;;;;;;10.95;100.00;100481.31;4979946;28;20042;-88
2023/04/19 04:56:58;;;;;;;8.93;3.45;;;;;;;10.94;100.00;100477.84;4961512;28;20039;-90
2023/04/19 04:59:24;;;;;;;4.72;2.78;;;;;;;11.21;100.00;100484.63;4976635;28;20027;-90
2023/04/19 05:01:50;;;;;;;12.88;3.95;;;;;;;11.26;100.00;100477.03;4975887;28;20031;-90
2023/04/19 05:04:19;;;;;;;10.70;3.25;;;;;;;11.37;100.00;100485.44;4978661;28;20542;-90
2023/04/19 05:06:44;;;;;;;8.65;3.60;;;;;;;11.38;100.00;100479.16;4976104;28;20114;-88
2023/04/19 05:09:13;;;;;;;10.25;3.30;;;;;;;11.56;100.00;100484.28;4976845;28;20117;-90
2023/04/19 05:11:48;;;;;;;5.82;3.00;;;;;;;11.98;100.00;100488.47;4976216;28;20051;-88
2023/04/19 05:14:14;;;;;;;10.32;3.30;;;;;;;12.08;100.00;100478.47;4967874;28;20121;-89
2023/04/19 05:16:59;;;;;;;9.45;3.75;;;;;;;12.04;100.00;100474.50;4969275;28;20589;-92
2023/04/19 05:19:25;;;;;;;10.40;4.18;;;;;;;12.30;100.00;100477.69;4981763;28;20039;-86
2023/04/19 05:21:58;;;;;;;15.98;4.20;;;;;;;12.07;100.00;100487.44;4979640;28;20030;-87
2023/04/19 05:24:30;;;;;;;17.30;4.43;;;;;;;12.17;100.00;100477.44;4962682;28;20517;-89
2023/04/19 05:27:00;;;;;;;8.45;3.95;;;;;;;12.37;100.00;100479.50;4978553;28;20039;-88
2023/04/19 05:29:26;;;;;;;18.65;4.00;;;;;;;12.67;98.96;100484.97;4960772;28;20047;-88
2023/04/19 05:31:53;;;;;;;15.35;3.85;;;;;;;12.65;100.00;100485.16;4977281;28;20023;-87
2023/04/19 05:34:32;;;;;;;11.20;3.90;;;;;;;12.80;98.35;100483.38;4980814;28;20394;-86
2023/04/19 05:37:01;;;;;;;32.30;14.63;;;;;;;13.17;95.00;100487.09;4962275;28;20045;-86
2023/04/19 05:39:27;;;;;;;24.70;7.78;;;;;;;13.62;89.89;100486.19;4979496;28;20468;-89
2023/04/19 05:41:53;;;;;;;14.73;5.70;;;;;;;14.82;82.83;100494.47;4977631;28;20154;-85
2023/04/19 05:44:21;;;;;;;12.65;3.35;;;;;;;15.17;76.33;100489.25;4984267;28;20066;-85
2023/04/19 05:46:48;;;;;;;11.40;2.90;;;;;;;15.02;77.67;100486.66;4982497;28;20371;-84
2023/04/19 05:49:34;;;;;;;11.25;3.42;;;;;;;15.76;73.86;100495.91;4991303;28;20027;-86
2023/04/19 05:52:14;;;;;;;;;;;;;;;16.18;71.10;100489.53;4987145;28;20114;-89
2023/04/19 05:54:47;;;;;;;14.10;4.28;;;;;;;15.23;72.93;100496.50;4984214;28;19918;-87
2023/04/19 05:57:15;;;;;;;11.18;4.93;;;;;;;14.92;77.63;100486.97;4969614;28;20057;-92
2023/04/19 05:59:41;;;;;;;9.50;3.88;;;;;;;14.15;81.79;100493.06;4987154;28;20038;-93
2023/04/19 06:02:08;;;;;;;6.97;3.72;;;;;;;14.08;83.54;100492.16;4984722;28;20066;-89
2023/04/19 06:04:34;;;;;;;10.65;4.07;;;;;;;14.46;83.69;100488.34;4985959;28;20039;-92
2023/04/19 06:06:59;;;;;;;12.23;4.47;;;;;;;14.56;81.90;100486.19;4983839;28;20030;-90
2023/04/19 06:09:25;;;;;;;12.15;3.70;;;;;;;15.66;75.57;100484.72;4985706;28;20144;-89
2023/04/19 06:11:55;;;;;;;8.20;3.50;;;;;;;15.61;74.04;100495.16;4990170;28;20034;-90
2023/04/19 06:14:25;;;;;;;10.82;3.70;;;;;;;15.39;75.59;100493.53;5000754;28;20047;-90
2023/04/19 06:16:52;;;;;;;13.60;3.80;;;;;;;15.17;78.70;100490.09;4984582;28;20042;-87
2023/04/19 06:19:20;;;;;;;20.77;4.32;;;;;;;15.35;78.30;100486.94;5000305;28;20030;-91
2023/04/19 06:21:49;;;;;;;13.38;4.97;;;;;;;15.39;77.58;100488.19;4999955;28;20042;-91
2023/04/19 06:24:14;;;;;;;10.65;4.10;;;;;;;15.39;79.12;100480.19;4997504;28;20039;-86
2023/04/19 06:26:40;;;;;;;20.52;4.20;;;;;;;15.84;75.78;100477.00;4997200;28;20106;-88
2023/04/19 06:29:08;;;;;;;13.00;3.88;;;;;;;15.74;76.10;100476.53;4991516;28;20035;-87
2023/04/19 06:31:36;;;;;;;12.95;4.35;;;;;;;16.45;73.86;100475.22;4971899;28;20053;-89
2023/04/19 06:34:02;;;;;;;7.90;3.58;;;;;;;16.42;71.10;100481.00;4980097;28;20135;-90
2023/04/19 06:36:28;;;;;;;10.20;3.88;;;;;;;15.91;73.64;100485.06;4979659;28;20031;-87
2023/04/19 06:38:53;;;;;;;6.68;3.90;;;;;;;15.85;74.03;100480.50;4979097;28;20049;-88
2023/04/19 06:41:19;;;;;;;9.25;4.10;;;;;;;15.90;73.70;100486.94;4979830;28;20038;-88
2023/04/19 06:43:45;;;;;;;12.93;4.32;;;;;;;16.19;72.51;100485.00;4979915;28;20041;-88
2023/04/19 06:46:12;;;;;;;7.50;3.85;;;;;;;17.24;65.65;100477.22;4978525;28;20542;-85
2023/04/19 06:48:38;;;;;;;7.22;3.60;;;;;;;18.31;59.57;100483.00;4978233;28;20043;-83
2023/04/19 06:51:04;;;;;;;11.05;3.03;;;;;;;19.25;55.83;100496.50;4980036;28;20033;-87
2023/04/19 06:53:30;;;;;;;6.90;3.30;;;;;;;20.03;55.98;100485.00;4978603;28;20490;-87
2023/04/19 06:56:03;;;;;;;10.85;3.40;;;;;;;20.42;52.34;100493.66;4977901;28;20042;-87
2023/04/19 06:58:29;;;;;;;6.30;3.00;;;;;;;21.69;47.42;100495.88;4977881;28;20089;-85
2023/04/19 07:00:55;;;;;;;9.90;3.50;;;;;;;22.68;43.16;100500.16;4979140;28;20031;-90
2023/04/19 07:03:21;;;;;;;6.15;2.75;;;;;;;21.62;44.68;100495.16;4979610;28;20047;-88
2023/04/19 07:05:47;;;;;;;6.47;2.53;;;;;;;22.14;43.09;100493.34;4983575;28;20058;-89
2023/04/19 07:08:12;;;;;;;10.13;3.33;;;;;;;22.03;43.16;100497.75;4980420;28;20093;-90
2023/04/19 07:10:38;;;;;;;5.82;3.00;;;;;;;21.51;43.72;100496.78;4977990;28;20027;-89
2023/04/19 07:13:03;;;;;;;6.35;3.47;;;;;;;20.52;46.14;100493.94;4978170;28;20031;-89
2023/04/19 07:15:29;;;;;;;6.50;2.70;;;;;;;20.39;47.51;100496.81;4979144;28;20035;-88
2023/04/19 07:17:54;;;;;;;4.68;2.83;;;;;;;21.89;43.02;100493.66;4978108;28;20169;-93
2023/04/19 07:20:20;;;;;;;8.73;2.85;;;;;;;21.12;43.70;100490.19;4980101;28;20401;-85
2023/04/19 07:22:46;;;;;;;5.63;3.08;;;;;;;20.96;44.83;100490.00;4978225;28;20443;-91
2023/04/19 07:25:13;;;;;;;4.82;3.08;;;;;;;20.87;46.25;100489.53;4981422;28;20031;-86
2023/04/19 07:27:39;;;;;;;5.60;2.78;;;;;;;21.12;45.21;100487.50;4980292;28;20035;-83
2023/04/19 07:30:05;;;;;;;5.20;2.50;;;;;;;22.08;42.29;100489.75;4978197;28;20129;-93
2023/04/19 07:32:32;;;;;;;7.07;3.00;;;;;;;21.55;43.45;100489.88;4981326;28;20035;-86
2023/04/19 07:35:02;;;;;;;6.85;2.47;;;;;;;22.21;42.62;100487.81;4982457;28;20038;-90
2023/04/19 07:37:29;;;;;;;6.90;2.97;;;;;;;22.41;41.48;100488.22;4984573;28;20039;-90
2023/04/19 07:39:54;;;;;;;4.55;2.60;;;;;;;22.58;40.52;100489.13;4982134;28;20553;-83
2023/04/19 07:42:20;;;;;;;11.82;3.50;;;;;;;22.42;42.36;100489.88;4983593;28;20039;-91
2023/04/19 07:44:45;;;;;;;7.60;2.97;;;;;;;22.47;43.82;100490.00;4975535;28;20035;-86
2023/04/19 07:47:13;;;;;;;12.15;3.55;;;;;;;21.81;45.45;100483.16;4964330;29;20038;-84
2023/04/19 07:49:38;;;;;;;4.50;3.13;;;;;;;20.73;49.36;100476.47;4963504;28;20031;-85
2023/04/19 07:52:06;;;;;;;6.97;3.33;;;;;;;22.11;45.36;100478.47;4995716;23;20073;-86
2023/04/19 07:54:41;;;;;;;7.38;3.22;;;;;;;23.61;41.45;100489.59;4989266;28;20062;-85
2023/04/19 07:57:20;;;;;;;5.03;3.25;;;;;;;23.73;40.42;100484.06;4987852;28;20047;-85
2023/04/19 07:59:47;;;;;;;10.23;3.38;;;;;;;22.96;42.05;100480.38;4984448;28;20043;-85
2023/04/19 08:02:19;;;;;;;6.95;3.15;;;;;;;23.39;41.25;100490.56;4976890;28;20090;-85
2023/04/19 08:04:48;;;;;;;5.18;2.90;;;;;;;24.72;39.39;100483.97;4981170;28;20383;-86
2023/04/19 08:07:20;;;;;;;9.77;2.97;;;;;;;24.97;38.50;100479.63;4981882;28;20026;-88
2023/04/19 08:09:55;;;;;;;6.23;3.37;;;;;;;24.48;38.79;100494.28;4985951;28;20042;-91
2023/04/19 08:12:21;;;;;;;9.73;3.95;;;;;;;23.60;41.63;100487.13;4992980;28;20091;-85
2023/04/19 08:14:49;;;;;;;6.63;3.47;;;;;;;23.81;41.83;100489.06;5003724;23;20035;-85
2023/04/19 08:17:57;;;;;;;5.20;3.22;;;;;;;24.73;40.30;100480.97;4994943;28;20093;-85
2023/04/19 08:20:23;;;;;;;10.15;3.25;;;;;;;24.01;40.28;100477.69;5007859;23;20049;-85
2023/04/19 08:22:49;;;;;;;5.65;2.60;;;;;;;22.59;42.40;100477.25;4992052;28;20035;-88
2023/04/19 08:25:27;;;;;;;4.32;2.78;;;;;;;22.80;42.71;100471.22;4991519;28;20031;-88
2023/04/19 08:28:00;;;;;;;4.32;2.10;;;;;;;23.29;40.02;100469.59;4989396;28;20043;-88
2023/04/19 08:30:30;;;;;;;4.28;1.55;;;;;;;23.13;41.39;100476.63;4987820;28;20034;-87
2023/04/19 08:33:00;;;;;;;7.40;2.08;;;;;;;23.51;40.21;100466.97;4977149;28;20047;-89
2023/04/19 08:35:29;;;;;;;4.95;2.10;;;;;;;22.14;43.30;100453.69;4982073;28;20433;-88
2023/04/19 08:37:55;;;;;;;2.67;1.50;;;;;;;22.72;40.21;100465.34;4983087;28;20038;-89
2023/04/19 08:40:23;;;;;;;4.85;1.92;;;;;;;22.49;41.18;100463.56;4979374;28;20034;-87
2023/04/19 08:42:52;;;;;;;4.13;2.00;;;;;;;23.24;40.21;100463.25;4976118;28;20042;-85
2023/04/19 08:45:26;;;;;;;2.92;1.63;;;;;;;23.29;40.14;100463.34;4978941;28;20038;-85
2023/04/19 08:47:57;;;;;;;2.88;1.70;;;;;;;24.58;36.83;100472.72;4982454;28;20049;-90
2023/04/19 08:50:23;;;;;;;5.07;1.40;;;;;;;24.66;36.12;100464.09;4978100;28;20054;-85
2023/04/19 08:52:50;;;;;;;3.58;1.70;;;;;;;23.41;37.91;100467.63;4980755;28;20054;-84
2023/04/19 08:55:17;;;;;;;3.30;1.92;;;;;;;22.70;40.15;100452.09;4977187;28;20500;-85
2023/04/19 08:57:45;;;;;;;2.85;1.83;;;;;;;23.73;38.41;100454.28;4975605;28;20039;-84
2023/04/19 09:00:11;;;;;;;3.45;1.80;;;;;;;23.76;38.18;100459.22;4976421;28;20027;-86
2023/04/19 09:02:48;;;;;;;4.75;1.88;;;;;;;23.23;38.75;100456.25;4977080;28;20049;-85
2023/04/19 09:05:17;;;;;;;1.65;1.33;;;;;;;24.07;37.09;100458.53;4976218;28;20043;-86
2023/04/19 09:07:46;;;;;;;3.78;1.77;;;;;;;23.24;38.64;100444.34;4975970;28;20047;-84
2023/04/19 09:10:24;;;;;;;6.13;2.22;;;;;;;23.42;39.16;100452.22;4976604;28;20035;-85
2023/04/19 09:13:02;;;;;;;6.05;2.15;;;;;;;23.92;38.73;100452.94;4974866;28;20177;-84
2023/04/19 09:15:39;;;;;;;3.42;1.80;;;;;;;23.83;37.44;100443.59;4976094;28;20037;-83
2023/04/19 09:18:10;;;;;;;2.33;1.38;;;;;;;24.24;37.31;100433.31;4975180;28;20098;-85
2023/04/19 09:20:38;;;;;;;3.30;1.15;;;;;;;24.57;36.75;100433.13;4974550;28;20405;-83
2023/04/19 09:23:12;;;;;;;3.60;2.00;;;;;;;23.99;37.52;100431.91;4975948;28;20089;-85
2023/04/19 09:25:50;;;;;;;3.03;1.30;;;;;;;24.44;36.85;100428.94;4983420;28;20026;-86
2023/04/19 09:28:16;;;;;;;2.33;1.10;;;;;;;24.40;35.97;100426.97;4984133;28;20153;-88
2023/04/19 09:30:55;;;;;;;1.70;1.30;;;;;;;23.87;37.07;100428.50;4984550;28;20110;-85
2023/04/19 09:33:40;;;;;;;1.63;1.10;;;;;;;24.02;36.53;100422.47;4990466;28;20481;-87
2023/04/19 09:36:07;;;;;;;4.68;1.10;;;;;;;25.08;34.59;100418.97;4986516;28;20055;-86
2023/04/19 09:38:49;;;;;;;3.67;1.50;;;;;;;24.50;35.73;100413.53;4978885;28;20031;-87
2023/04/19 09:41:16;;;;;;;2.40;1.35;;;;;;;24.56;35.91;100415.25;4980960;28;20050;-89
2023/04/19 09:43:42;;;;;;;3.72;1.33;;;;;;;24.59;36.20;100414.72;4982835;28;20031;-90
2023/04/19 09:46:08;;;;;;;4.72;1.70;;;;;;;25.11;35.75;100399.47;4981436;28;20051;-89
2023/04/19 09:48:36;;;;;;;3.10;1.73;;;;;;;24.93;35.93;100399.03;4979514;28;20129;-89
2023/04/19 09:51:02;;;;;;;4.65;1.73;;;;;;;24.93;36.38;100408.00;5004298;23;20043;-88
2023/04/19 09:53:38;;;;;;;3.42;1.90;;;;;;;25.15;35.86;100397.88;4971519;28;20059;-89
2023/04/19 09:56:26;;;;;;;3.78;2.05;;;;;;;24.00;37.28;100400.22;4982286;23;20040;-88
2023/04/19 09:58:52;;;;;;;2.67;1.70;;;;;;;23.96;36.66;100399.91;4978536;28;20030;-90
2023/04/19 10:01:21;;;;;;;3.05;1.92;;;;;;;23.37;37.94;100385.31;4982130;28;20098;-87
2023/04/19 10:03:51;;;;;;;3.05;2.03;;;;;;;24.29;36.22;100374.59;4976219;28;20039;-89
2023/04/19 10:06:18;;;;;;;4.13;1.80;;;;;;;24.75;35.55;100381.25;4962575;29;20042;-89
2023/04/19 10:08:44;;;;;;;4.57;2.45;;;;;;;24.87;35.49;100373.78;4956970;29;20053;-86
2023/04/19 10:11:11;;;;;;;3.13;2.10;;;;;;;25.15;34.77;100376.19;4958988;29;20500;-90
2023/04/19 10:13:38;;;;;;;4.05;2.25;;;;;;;25.36;34.62;100370.84;4959250;29;20032;-89
2023/04/19 10:16:16;;;;;;;5.65;3.20;;;;;;;25.03;34.90;100372.81;4974495;28;20042;-90
2023/04/19 10:18:51;;;;;;;7.53;2.47;;;;;;;26.28;33.60;100357.44;4981038;28;20047;-90
2023/04/19 10:21:26;;;;;;;4.63;2.70;;;;;;;27.00;32.24;100364.56;4974496;28;20162;-90
2023/04/19 10:24:01;;;;;;;3.65;2.30;;;;;;;26.86;31.82;100364.28;4970462;28;20051;-90
2023/04/19 10:27:02;;;;;;;4.45;2.63;;;;;;;25.70;33.07;100353.16;4972271;28;20034;-89
2023/04/19 10:29:56;;;;;;;5.47;2.33;;;;;;;26.40;32.19;100349.03;4969804;28;20046;-89
2023/04/19 10:32:23;;;;;;;5.30;2.50;;;;;;;25.95;32.76;100349.72;4973694;29;20059;-91
2023/04/19 10:34:52;;;;;;;7.88;2.80;;;;;;;26.09;31.89;100337.25;4983895;28;20028;-84
2023/04/19 10:37:21;;;;;;;5.13;2.80;;;;;;;25.81;32.17;100335.00;4969657;28;20108;-85
2023/04/19 10:39:47;;;;;;;4.00;3.30;;;;;;;25.74;32.18;100335.25;4970924;28;20023;-86
2023/04/19 10:42:16;;;;;;;14.07;3.10;;;;;;;26.69;31.06;100321.03;4969177;28;20573;-89
2023/04/19 10:45:28;;;;;;;5.35;2.63;;;;;;;26.69;31.61;100323.75;4969653;28;20047;-90
2023/04/19 10:47:54;;;;;;;5.90;2.63;;;;;;;27.14;30.67;100322.91;4958948;28;20058;-91
2023/04/19 10:50:22;;;;;;;3.33;2.70;;;;;;;27.12;30.79;100319.63;4943480;29;20040;-88
2023/04/19 10:52:51;;;;;;;4.93;3.38;;;;;;;26.41;31.67;100312.63;4959349;29;20099;-90
2023/04/19 10:55:18;;;;;;;5.00;3.13;;;;;;;26.64;31.40;100318.31;4953511;28;20087;-91
2023/04/19 10:58:05;;;;;;;4.93;3.25;;;;;;;26.40;31.15;100309.06;4966906;28;20034;-88
2023/04/19 11:00:32;;;;;;;8.23;3.20;;;;;;;26.54;33.24;100302.03;4966710;28;20039;-89
2023/04/19 11:03:37;;;;;;;7.20;2.67;;;;;;;26.76;31.44;100304.44;4962005;28;20043;-89
2023/04/19 11:06:20;;;;;;;10.07;3.75;;;;;;;26.33;31.16;100291.41;4952762;29;20118;-89
2023/04/19 11:08:46;;;;;;;4.72;3.35;;;;;;;26.73;30.82;100291.38;4957522;28;20114;-89
2023/04/19 11:11:14;;;;;;;4.25;2.80;;;;;;;27.20;29.98;100286.44;4957033;28;20074;-88
2023/04/19 11:13:42;;;;;;;5.45;3.35;;;;;;;27.83;28.79;100278.53;4959648;28;20082;-90
2023/04/19 11:16:08;;;;;;;6.40;3.20;;;;;;;28.01;28.78;100275.13;4958264;29;20110;-90
2023/04/19 11:18:34;;;;;;;5.07;3.38;;;;;;;28.19;28.63;100276.41;4960152;28;20399;-90
2023/04/19 11:21:02;;;;;;;6.88;3.17;;;;;;;27.95;29.18;100259.09;4959374;29;20134;-91
2023/04/19 11:23:37;;;;;;;6.82;3.17;;;;;;;27.77;29.51;100271.50;4961868;28;20066;-90
2023/04/19 11:26:02;;;;;;;5.97;4.13;;;;;;;27.04;30.00;100268.53;4943521;29;20056;-90
2023/04/19 11:28:28;;;;;;;7.55;4.22;;;;;;;26.24;30.55;100252.28;4957324;29;20122;-88